sensor_id;sensor_type;location;lat;lon;timestamp;P1;durP1;ratioP1;P2;durP2;ratioP2
70997;SDS011;58663;52.040;4.634;2023-04-24T00:00:00;6.82;;;2.83;;
70997;SDS011;58663;52.040;4.634;2023-04-24T00:02:26;6.25;;;2.67;;
70997;SDS011;58663;52.040;4.634;2023-04-24T00:04:51;7.43;;;2.40;;
70997;SDS011;58663;52.040;4.634;2023-04-24T00:07:17;11.35;;;2.53;;
70997;SDS011;58663;52.040;4.634;2023-04-24T00:09:42;6.10;;;3.03;;
70997;SDS011;58663;52.040;4.634;2023-04-24T00:12:08;5.03;;;2.88;;
70997;SDS011;58663;52.040;4.634;2023-04-24T00:14:34;4.55;;;2.67;;
70997;SDS011;58663;52.040;4.634;2023-04-24T00:17:00;8.63;;;2.92;;
70997;SDS011;58663;52.040;4.634;2023-04-24T00:19:27;10.88;;;4.13;;
70997;SDS011;58663;52.040;4.634;2023-04-24T00:21:53;7.70;;;2.90;;
70997;SDS011;58663;52.040;4.634;2023-04-24T00:24:19;7.70;;;2.75;;
70997;SDS011;58663;52.040;4.634;2023-04-24T00:26:44;6.40;;;3.00;;
70997;SDS011;58663;52.040;4.634;2023-04-24T00:29:10;5.45;;;2.63;;
70997;SDS011;58663;52.040;4.634;2023-04-24T00:31:35;7.13;;;2.58;;
70997;SDS011;58663;52.040;4.634;2023-04-24T00:34:01;6.82;;;3.38;;
70997;SDS011;58663;52.040;4.634;2023-04-24T00:36:27;8.05;;;3.15;;
70997;SDS011;58663;52.040;4.634;2023-04-24T00:38:53;8.02;;;2.80;;
70997;SDS011;58663;52.040;4.634;2023-04-24T00:41:18;6.63;;;2.67;;
70997;SDS011;58663;52.040;4.634;2023-04-24T00:43:44;8.52;;;3.10;;
70997;SDS011;58663;52.040;4.634;2023-04-24T00:46:10;5.03;;;2.60;;
70997;SDS011;58663;52.040;4.634;2023-04-24T00:48:37;7.07;;;2.38;;
70997;SDS011;58663;52.040;4.634;2023-04-24T00:51:04;4.70;;;2.65;;
70997;SDS011;58663;52.040;4.634;2023-04-24T00:53:29;5.70;;;2.30;;
70997;SDS011;58663;52.040;4.634;2023-04-24T00:55:55;5.50;;;2.30;;
70997;SDS011;58663;52.040;4.634;2023-04-24T00:58:21;6.80;;;1.98;;
70997;SDS011;58663;52.040;4.634;2023-04-24T01:00:46;7.00;;;3.17;;
70997;SDS011;58663;52.040;4.634;2023-04-24T01:03:12;11.30;;;2.45;;
70997;SDS011;58663;52.040;4.634;2023-04-24T01:05:39;5.93;;;2.72;;
70997;SDS011;58663;52.040;4.634;2023-04-24T01:08:05;10.65;;;2.97;;
70997;SDS011;58663;52.040;4.634;2023-04-24T01:10:31;5.25;;;3.25;;
70997;SDS011;58663;52.040;4.634;2023-04-24T01:12:58;6.55;;;3.25;;
70997;SDS011;58663;52.040;4.634;2023-04-24T01:15:24;10.88;;;4.85;;
70997;SDS011;58663;52.040;4.634;2023-04-24T01:17:49;8.68;;;4.68;;
70997;SDS011;58663;52.040;4.634;2023-04-24T01:20:15;10.18;;;4.15;;
70997;SDS011;58663;52.040;4.634;2023-04-24T01:22:41;7.25;;;4.50;;
70997;SDS011;58663;52.040;4.634;2023-04-24T01:25:07;11.48;;;4.07;;
70997;SDS011;58663;52.040;4.634;2023-04-24T01:27:33;7.90;;;4.25;;
70997;SDS011;58663;52.040;4.634;2023-04-24T01:29:58;9.27;;;4.40;;
70997;SDS011;58663;52.040;4.634;2023-04-24T01:32:23;8.93;;;4.07;;
70997;SDS011;58663;52.040;4.634;2023-04-24T01:34:49;8.52;;;3.95;;
70997;SDS011;58663;52.040;4.634;2023-04-24T01:37:15;6.05;;;3.05;;
70997;SDS011;58663;52.040;4.634;2023-04-24T01:39:41;6.97;;;3.17;;
70997;SDS011;58663;52.040;4.634;2023-04-24T01:42:07;16.73;;;4.03;;
70997;SDS011;58663;52.040;4.634;2023-04-24T01:44:33;7.28;;;3.22;;
70997;SDS011;58663;52.040;4.634;2023-04-24T01:47:00;6.65;;;3.22;;
70997;SDS011;58663;52.040;4.634;2023-04-24T01:49:26;7.80;;;3.15;;
70997;SDS011;58663;52.040;4.634;2023-04-24T01:51:51;10.07;;;3.70;;
70997;SDS011;58663;52.040;4.634;2023-04-24T01:54:17;9.13;;;3.72;;
70997;SDS011;58663;52.040;4.634;2023-04-24T01:56:42;7.75;;;3.38;;
70997;SDS011;58663;52.040;4.634;2023-04-24T01:59:09;8.43;;;2.95;;
70997;SDS011;58663;52.040;4.634;2023-04-24T02:01:36;7.22;;;2.72;;
70997;SDS011;58663;52.040;4.634;2023-04-24T02:04:02;6.30;;;2.42;;
70997;SDS011;58663;52.040;4.634;2023-04-24T02:06:27;4.13;;;2.65;;
70997;SDS011;58663;52.040;4.634;2023-04-24T02:08:53;8.45;;;3.08;;
70997;SDS011;58663;52.040;4.634;2023-04-24T02:11:18;6.50;;;3.50;;
70997;SDS011;58663;52.040;4.634;2023-04-24T02:13:44;10.02;;;4.70;;
70997;SDS011;58663;52.040;4.634;2023-04-24T02:16:09;9.73;;;4.05;;
70997;SDS011;58663;52.040;4.634;2023-04-24T02:18:35;13.40;;;4.78;;
70997;SDS011;58663;52.040;4.634;2023-04-24T02:21:00;8.77;;;4.75;;
70997;SDS011;58663;52.040;4.634;2023-04-24T02:23:25;11.13;;;5.30;;
70997;SDS011;58663;52.040;4.634;2023-04-24T02:25:52;8.38;;;4.68;;
70997;SDS011;58663;52.040;4.634;2023-04-24T02:28:18;14.55;;;4.63;;
70997;SDS011;58663;52.040;4.634;2023-04-24T02:30:44;12.02;;;5.00;;
70997;SDS011;58663;52.040;4.634;2023-04-24T02:33:09;12.80;;;4.55;;
70997;SDS011;58663;52.040;4.634;2023-04-24T02:35:34;15.40;;;5.05;;
70997;SDS011;58663;52.040;4.634;2023-04-24T02:38:00;16.08;;;5.25;;
70997;SDS011;58663;52.040;4.634;2023-04-24T02:40:25;13.15;;;5.60;;
70997;SDS011;58663;52.040;4.634;2023-04-24T02:42:51;14.20;;;5.55;;
70997;SDS011;58663;52.040;4.634;2023-04-24T02:45:16;9.82;;;5.07;;
70997;SDS011;58663;52.040;4.634;2023-04-24T02:47:41;13.02;;;4.80;;
70997;SDS011;58663;52.040;4.634;2023-04-24T02:50:07;7.28;;;3.40;;
70997;SDS011;58663;52.040;4.634;2023-04-24T02:52:33;9.02;;;3.40;;
70997;SDS011;58663;52.040;4.634;2023-04-24T02:54:58;6.13;;;2.53;;
70997;SDS011;58663;52.040;4.634;2023-04-24T02:57:23;4.25;;;1.90;;
70997;SDS011;58663;52.040;4.634;2023-04-24T02:59:49;5.63;;;2.10;;
70997;SDS011;58663;52.040;4.634;2023-04-24T03:02:14;1.90;;;1.48;;
70997;SDS011;58663;52.040;4.634;2023-04-24T03:04:40;3.42;;;1.25;;
70997;SDS011;58663;52.040;4.634;2023-04-24T03:07:07;2.25;;;1.23;;
70997;SDS011;58663;52.040;4.634;2023-04-24T03:09:33;5.72;;;1.20;;
70997;SDS011;58663;52.040;4.634;2023-04-24T03:11:58;3.58;;;1.48;;
70997;SDS011;58663;52.040;4.634;2023-04-24T03:14:23;2.88;;;1.40;;
70997;SDS011;58663;52.040;4.634;2023-04-24T03:16:49;3.75;;;1.40;;
70997;SDS011;58663;52.040;4.634;2023-04-24T03:19:15;6.65;;;1.23;;
70997;SDS011;58663;52.040;4.634;2023-04-24T03:21:40;3.38;;;1.08;;
70997;SDS011;58663;52.040;4.634;2023-04-24T03:24:09;2.05;;;0.63;;
70997;SDS011;58663;52.040;4.634;2023-04-24T03:26:34;3.30;;;0.80;;
70997;SDS011;58663;52.040;4.634;2023-04-24T03:29:00;1.52;;;0.95;;
70997;SDS011;58663;52.040;4.634;2023-04-24T03:31:26;3.28;;;1.00;;
70997;SDS011;58663;52.040;4.634;2023-04-24T03:33:51;1.40;;;0.90;;
70997;SDS011;58663;52.040;4.634;2023-04-24T03:36:16;5.07;;;0.80;;
70997;SDS011;58663;52.040;4.634;2023-04-24T03:38:42;3.30;;;1.08;;
70997;SDS011;58663;52.040;4.634;2023-04-24T03:41:08;2.72;;;1.00;;
70997;SDS011;58663;52.040;4.634;2023-04-24T03:43:33;0.95;;;0.77;;
70997;SDS011;58663;52.040;4.634;2023-04-24T03:45:59;1.83;;;0.75;;
70997;SDS011;58663;52.040;4.634;2023-04-24T03:48:25;5.63;;;1.02;;
70997;SDS011;58663;52.040;4.634;2023-04-24T03:50:50;4.15;;;0.98;;
70997;SDS011;58663;52.040;4.634;2023-04-24T03:53:16;1.50;;;0.70;;
70997;SDS011;58663;52.040;4.634;2023-04-24T03:55:41;4.35;;;1.65;;
70997;SDS011;58663;52.040;4.634;2023-04-24T03:58:07;4.13;;;0.80;;
70997;SDS011;58663;52.040;4.634;2023-04-24T04:00:32;1.83;;;0.98;;
70997;SDS011;58663;52.040;4.634;2023-04-24T04:02:58;3.30;;;1.00;;
70997;SDS011;58663;52.040;4.634;2023-04-24T04:05:23;1.13;;;0.77;;
70997;SDS011;58663;52.040;4.634;2023-04-24T04:07:49;6.78;;;1.00;;
70997;SDS011;58663;52.040;4.634;2023-04-24T04:10:14;3.30;;;1.17;;
70997;SDS011;58663;52.040;4.634;2023-04-24T04:12:40;6.00;;;1.40;;
70997;SDS011;58663;52.040;4.634;2023-04-24T04:15:05;2.03;;;0.90;;
70997;SDS011;58663;52.040;4.634;2023-04-24T04:17:31;2.45;;;0.77;;
70997;SDS011;58663;52.040;4.634;2023-04-24T04:19:57;4.38;;;1.00;;
70997;SDS011;58663;52.040;4.634;2023-04-24T04:22:22;4.72;;;1.08;;
70997;SDS011;58663;52.040;4.634;2023-04-24T04:24:47;1.92;;;1.08;;
70997;SDS011;58663;52.040;4.634;2023-04-24T04:27:13;2.53;;;1.23;;
70997;SDS011;58663;52.040;4.634;2023-04-24T04:29:38;3.47;;;0.90;;
70997;SDS011;58663;52.040;4.634;2023-04-24T04:32:05;3.00;;;1.20;;
70997;SDS011;58663;52.040;4.634;2023-04-24T04:34:31;1.80;;;0.90;;
70997;SDS011;58663;52.040;4.634;2023-04-24T04:36:56;3.55;;;1.20;;
70997;SDS011;58663;52.040;4.634;2023-04-24T04:39:24;6.72;;;1.48;;
70997;SDS011;58663;52.040;4.634;2023-04-24T04:41:50;3.35;;;1.20;;
70997;SDS011;58663;52.040;4.634;2023-04-24T04:44:15;3.67;;;1.58;;
70997;SDS011;58663;52.040;4.634;2023-04-24T04:46:41;5.43;;;2.03;;
70997;SDS011;58663;52.040;4.634;2023-04-24T04:49:06;6.38;;;1.63;;
70997;SDS011;58663;52.040;4.634;2023-04-24T04:51:33;2.25;;;1.70;;
70997;SDS011;58663;52.040;4.634;2023-04-24T04:53:59;3.20;;;1.40;;
70997;SDS011;58663;52.040;4.634;2023-04-24T04:56:24;4.40;;;2.30;;
70997;SDS011;58663;52.040;4.634;2023-04-24T04:58:50;5.50;;;2.72;;
70997;SDS011;58663;52.040;4.634;2023-04-24T05:01:15;9.15;;;4.00;;
70997;SDS011;58663;52.040;4.634;2023-04-24T05:03:41;15.05;;;4.63;;
70997;SDS011;58663;52.040;4.634;2023-04-24T05:06:06;9.02;;;4.35;;
70997;SDS011;58663;52.040;4.634;2023-04-24T05:08:32;15.05;;;4.53;;
70997;SDS011;58663;52.040;4.634;2023-04-24T05:10:57;8.88;;;4.90;;
70997;SDS011;58663;52.040;4.634;2023-04-24T05:13:22;13.27;;;5.15;;
70997;SDS011;58663;52.040;4.634;2023-04-24T05:15:48;18.75;;;5.00;;
70997;SDS011;58663;52.040;4.634;2023-04-24T05:18:13;11.25;;;5.10;;
70997;SDS011;58663;52.040;4.634;2023-04-24T05:20:38;10.80;;;5.60;;
70997;SDS011;58663;52.040;4.634;2023-04-24T05:23:04;19.35;;;8.60;;
70997;SDS011;58663;52.040;4.634;2023-04-24T05:25:29;19.25;;;8.38;;
70997;SDS011;58663;52.040;4.634;2023-04-24T05:27:57;25.63;;;9.00;;
70997;SDS011;58663;52.040;4.634;2023-04-24T05:30:22;25.20;;;11.13;;
70997;SDS011;58663;52.040;4.634;2023-04-24T05:32:47;27.00;;;12.88;;
70997;SDS011;58663;52.040;4.634;2023-04-24T05:35:13;27.00;;;12.35;;
70997;SDS011;58663;52.040;4.634;2023-04-24T05:37:38;40.60;;;13.98;;
70997;SDS011;58663;52.040;4.634;2023-04-24T05:40:04;34.50;;;13.18;;
70997;SDS011;58663;52.040;4.634;2023-04-24T05:42:30;30.92;;;12.65;;
70997;SDS011;58663;52.040;4.634;2023-04-24T05:44:56;41.90;;;13.32;;
70997;SDS011;58663;52.040;4.634;2023-04-24T05:47:21;29.27;;;12.77;;
70997;SDS011;58663;52.040;4.634;2023-04-24T05:49:47;35.88;;;12.95;;
70997;SDS011;58663;52.040;4.634;2023-04-24T05:52:12;33.97;;;12.55;;
70997;SDS011;58663;52.040;4.634;2023-04-24T05:54:38;26.90;;;12.07;;
70997;SDS011;58663;52.040;4.634;2023-04-24T05:57:03;28.30;;;11.23;;
70997;SDS011;58663;52.040;4.634;2023-04-24T05:59:32;33.75;;;10.07;;
70997;SDS011;58663;52.040;4.634;2023-04-24T06:01:58;37.20;;;11.98;;
70997;SDS011;58663;52.040;4.634;2023-04-24T06:04:24;34.85;;;10.65;;
70997;SDS011;58663;52.040;4.634;2023-04-24T06:06:49;39.10;;;10.52;;
70997;SDS011;58663;52.040;4.634;2023-04-24T06:09:20;30.67;;;10.52;;
70997;SDS011;58663;52.040;4.634;2023-04-24T06:11:46;31.25;;;10.85;;
70997;SDS011;58663;52.040;4.634;2023-04-24T06:14:11;31.58;;;10.77;;
70997;SDS011;58663;52.040;4.634;2023-04-24T06:16:37;28.25;;;10.30;;
70997;SDS011;58663;52.040;4.634;2023-04-24T06:19:03;35.28;;;10.45;;
70997;SDS011;58663;52.040;4.634;2023-04-24T06:21:29;38.85;;;9.73;;
70997;SDS011;58663;52.040;4.634;2023-04-24T06:23:54;27.40;;;8.88;;
70997;SDS011;58663;52.040;4.634;2023-04-24T06:26:21;38.72;;;8.52;;
70997;SDS011;58663;52.040;4.634;2023-04-24T06:28:47;25.95;;;7.90;;
70997;SDS011;58663;52.040;4.634;2023-04-24T06:31:12;35.17;;;7.75;;
70997;SDS011;58663;52.040;4.634;2023-04-24T06:33:37;31.10;;;7.55;;
70997;SDS011;58663;52.040;4.634;2023-04-24T06:36:03;34.40;;;7.63;;
70997;SDS011;58663;52.040;4.634;2023-04-24T06:38:29;28.10;;;6.70;;
70997;SDS011;58663;52.040;4.634;2023-04-24T06:40:54;28.75;;;6.72;;
70997;SDS011;58663;52.040;4.634;2023-04-24T06:43:20;27.38;;;7.60;;
70997;SDS011;58663;52.040;4.634;2023-04-24T06:45:45;24.42;;;7.10;;
70997;SDS011;58663;52.040;4.634;2023-04-24T06:48:12;35.00;;;7.75;;
70997;SDS011;58663;52.040;4.634;2023-04-24T06:50:37;31.83;;;7.65;;
70997;SDS011;58663;52.040;4.634;2023-04-24T06:53:02;37.15;;;7.32;;
70997;SDS011;58663;52.040;4.634;2023-04-24T06:55:28;30.67;;;6.43;;
70997;SDS011;58663;52.040;4.634;2023-04-24T06:57:53;18.50;;;6.05;;
70997;SDS011;58663;52.040;4.634;2023-04-24T07:00:19;31.63;;;7.07;;
70997;SDS011;58663;52.040;4.634;2023-04-24T07:02:44;29.50;;;6.45;;
70997;SDS011;58663;52.040;4.634;2023-04-24T07:05:10;34.70;;;6.07;;
70997;SDS011;58663;52.040;4.634;2023-04-24T07:07:35;19.52;;;6.00;;
70997;SDS011;58663;52.040;4.634;2023-04-24T07:10:03;29.70;;;5.93;;
70997;SDS011;58663;52.040;4.634;2023-04-24T07:12:29;16.92;;;4.65;;
70997;SDS011;58663;52.040;4.634;2023-04-24T07:14:54;20.60;;;5.07;;
70997;SDS011;58663;52.040;4.634;2023-04-24T07:17:20;28.35;;;5.03;;
70997;SDS011;58663;52.040;4.634;2023-04-24T07:19:45;24.50;;;4.50;;
70997;SDS011;58663;52.040;4.634;2023-04-24T07:22:11;29.55;;;4.78;;
70997;SDS011;58663;52.040;4.634;2023-04-24T07:24:41;17.75;;;4.07;;
70997;SDS011;58663;52.040;4.634;2023-04-24T07:27:08;25.88;;;4.72;;
70997;SDS011;58663;52.040;4.634;2023-04-24T07:29:34;27.77;;;4.03;;
70997;SDS011;58663;52.040;4.634;2023-04-24T07:32:00;18.17;;;3.67;;
70997;SDS011;58663;52.040;4.634;2023-04-24T07:34:26;19.17;;;3.50;;
70997;SDS011;58663;52.040;4.634;2023-04-24T07:36:51;17.38;;;4.00;;
70997;SDS011;58663;52.040;4.634;2023-04-24T07:39:17;28.25;;;4.90;;
70997;SDS011;58663;52.040;4.634;2023-04-24T07:41:43;34.72;;;5.18;;
70997;SDS011;58663;52.040;4.634;2023-04-24T07:44:08;16.30;;;4.32;;
70997;SDS011;58663;52.040;4.634;2023-04-24T07:46:33;13.98;;;3.42;;
70997;SDS011;58663;52.040;4.634;2023-04-24T07:48:59;21.83;;;3.58;;
70997;SDS011;58663;52.040;4.634;2023-04-24T07:51:26;8.63;;;3.33;;
70997;SDS011;58663;52.040;4.634;2023-04-24T07:53:52;17.60;;;3.88;;
70997;SDS011;58663;52.040;4.634;2023-04-24T07:56:19;26.80;;;3.92;;
70997;SDS011;58663;52.040;4.634;2023-04-24T07:58:45;10.07;;;2.67;;
70997;SDS011;58663;52.040;4.634;2023-04-24T08:01:10;13.85;;;3.63;;
70997;SDS011;58663;52.040;4.634;2023-04-24T08:03:35;16.45;;;3.42;;
70997;SDS011;58663;52.040;4.634;2023-04-24T08:06:01;17.92;;;3.67;;
70997;SDS011;58663;52.040;4.634;2023-04-24T08:08:26;16.63;;;3.13;;
70997;SDS011;58663;52.040;4.634;2023-04-24T08:10:52;12.07;;;2.97;;
70997;SDS011;58663;52.040;4.634;2023-04-24T08:13:17;12.27;;;3.42;;
70997;SDS011;58663;52.040;4.634;2023-04-24T08:15:42;10.45;;;2.50;;
70997;SDS011;58663;52.040;4.634;2023-04-24T08:18:08;15.93;;;2.80;;
70997;SDS011;58663;52.040;4.634;2023-04-24T08:20:33;18.92;;;2.67;;
70997;SDS011;58663;52.040;4.634;2023-04-24T08:22:59;15.00;;;3.35;;
70997;SDS011;58663;52.040;4.634;2023-04-24T08:25:24;12.05;;;2.88;;
70997;SDS011;58663;52.040;4.634;2023-04-24T08:27:50;10.73;;;2.85;;
70997;SDS011;58663;52.040;4.634;2023-04-24T08:30:16;15.23;;;4.20;;
70997;SDS011;58663;52.040;4.634;2023-04-24T08:32:41;17.48;;;2.80;;
70997;SDS011;58663;52.040;4.634;2023-04-24T08:35:07;8.93;;;2.80;;
70997;SDS011;58663;52.040;4.634;2023-04-24T08:37:36;6.95;;;1.95;;
70997;SDS011;58663;52.040;4.634;2023-04-24T08:40:05;10.88;;;2.67;;
70997;SDS011;58663;52.040;4.634;2023-04-24T08:42:33;6.95;;;1.83;;
70997;SDS011;58663;52.040;4.634;2023-04-24T08:44:59;3.67;;;2.15;;
70997;SDS011;58663;52.040;4.634;2023-04-24T08:47:24;8.40;;;2.20;;
70997;SDS011;58663;52.040;4.634;2023-04-24T08:49:51;8.70;;;2.03;;
70997;SDS011;58663;52.040;4.634;2023-04-24T08:52:17;9.48;;;2.10;;
70997;SDS011;58663;52.040;4.634;2023-04-24T08:54:43;13.77;;;2.10;;
70997;SDS011;58663;52.040;4.634;2023-04-24T08:57:11;11.05;;;2.10;;
70997;SDS011;58663;52.040;4.634;2023-04-24T08:59:39;7.55;;;2.38;;
70997;SDS011;58663;52.040;4.634;2023-04-24T09:02:04;14.48;;;2.33;;
70997;SDS011;58663;52.040;4.634;2023-04-24T09:04:30;7.53;;;2.10;;
70997;SDS011;58663;52.040;4.634;2023-04-24T09:06:56;10.00;;;2.38;;
70997;SDS011;58663;52.040;4.634;2023-04-24T09:09:22;7.75;;;2.35;;
70997;SDS011;58663;52.040;4.634;2023-04-24T09:11:51;9.35;;;1.75;;
70997;SDS011;58663;52.040;4.634;2023-04-24T09:14:19;7.18;;;1.80;;
70997;SDS011;58663;52.040;4.634;2023-04-24T09:16:45;6.90;;;1.55;;
70997;SDS011;58663;52.040;4.634;2023-04-24T09:19:11;4.38;;;1.05;;
70997;SDS011;58663;52.040;4.634;2023-04-24T09:21:36;6.53;;;1.17;;
70997;SDS011;58663;52.040;4.634;2023-04-24T09:24:03;6.13;;;1.65;;
70997;SDS011;58663;52.040;4.634;2023-04-24T09:26:30;4.30;;;1.40;;
70997;SDS011;58663;52.040;4.634;2023-04-24T09:28:57;6.53;;;1.05;;
70997;SDS011;58663;52.040;4.634;2023-04-24T09:31:23;4.65;;;1.00;;
70997;SDS011;58663;52.040;4.634;2023-04-24T09:33:57;4.22;;;0.98;;
70997;SDS011;58663;52.040;4.634;2023-04-24T09:36:32;7.95;;;2.50;;
70997;SDS011;58663;52.040;4.634;2023-04-24T09:39:03;5.32;;;1.08;;
70997;SDS011;58663;52.040;4.634;2023-04-24T09:41:36;4.28;;;0.90;;
70997;SDS011;58663;52.040;4.634;2023-04-24T09:44:16;4.78;;;1.30;;
70997;SDS011;58663;52.040;4.634;2023-04-24T09:46:45;4.32;;;0.90;;
70997;SDS011;58663;52.040;4.634;2023-04-24T09:49:14;5.00;;;1.10;;
70997;SDS011;58663;52.040;4.634;2023-04-24T09:51:41;2.63;;;0.95;;
70997;SDS011;58663;52.040;4.634;2023-04-24T09:54:17;7.85;;;1.20;;
70997;SDS011;58663;52.040;4.634;2023-04-24T09:56:46;2.25;;;1.10;;
70997;SDS011;58663;52.040;4.634;2023-04-24T09:59:16;3.45;;;0.90;;
70997;SDS011;58663;52.040;4.634;2023-04-24T10:01:42;3.58;;;1.00;;
70997;SDS011;58663;52.040;4.634;2023-04-24T10:04:15;4.25;;;1.00;;
70997;SDS011;58663;52.040;4.634;2023-04-24T10:06:49;3.33;;;1.20;;
70997;SDS011;58663;52.040;4.634;2023-04-24T10:09:16;2.28;;;0.90;;
70997;SDS011;58663;52.040;4.634;2023-04-24T10:11:43;6.20;;;1.13;;
70997;SDS011;58663;52.040;4.634;2023-04-24T10:14:13;7.88;;;1.33;;
70997;SDS011;58663;52.040;4.634;2023-04-24T10:16:40;6.63;;;1.30;;
70997;SDS011;58663;52.040;4.634;2023-04-24T10:19:06;6.28;;;1.48;;
70997;SDS011;58663;52.040;4.634;2023-04-24T10:21:32;6.03;;;1.10;;
70997;SDS011;58663;52.040;4.634;2023-04-24T10:23:58;2.22;;;1.00;;
70997;SDS011;58663;52.040;4.634;2023-04-24T10:26:24;4.80;;;0.90;;
70997;SDS011;58663;52.040;4.634;2023-04-24T10:28:51;4.07;;;0.98;;
70997;SDS011;58663;52.040;4.634;2023-04-24T10:31:17;7.72;;;1.08;;
70997;SDS011;58663;52.040;4.634;2023-04-24T10:33:42;6.45;;;0.93;;
70997;SDS011;58663;52.040;4.634;2023-04-24T10:36:09;5.07;;;0.73;;
70997;SDS011;58663;52.040;4.634;2023-04-24T10:38:35;2.05;;;1.13;;
70997;SDS011;58663;52.040;4.634;2023-04-24T10:41:08;3.40;;;0.77;;
70997;SDS011;58663;52.040;4.634;2023-04-24T10:43:35;5.60;;;1.25;;
70997;SDS011;58663;52.040;4.634;2023-04-24T10:46:05;5.07;;;1.00;;
70997;SDS011;58663;52.040;4.634;2023-04-24T10:48:31;6.43;;;1.17;;
70997;SDS011;58663;52.040;4.634;2023-04-24T10:50:57;2.80;;;1.10;;
70997;SDS011;58663;52.040;4.634;2023-04-24T10:53:24;7.45;;;1.52;;
70997;SDS011;58663;52.040;4.634;2023-04-24T11:01:03;6.88;;;1.63;;
70997;SDS011;58663;52.040;4.634;2023-04-24T11:03:29;9.65;;;1.20;;
70997;SDS011;58663;52.040;4.634;2023-04-24T11:08:47;9.50;;;1.30;;
70997;SDS011;58663;52.040;4.634;2023-04-24T11:11:14;6.53;;;1.35;;
70997;SDS011;58663;52.040;4.634;2023-04-24T11:21:31;5.20;;;0.90;;
70997;SDS011;58663;52.040;4.634;2023-04-24T11:23:57;3.78;;;0.90;;
70997;SDS011;58663;52.040;4.634;2023-04-24T11:26:23;3.22;;;0.80;;
70997;SDS011;58663;52.040;4.634;2023-04-24T11:29:05;5.30;;;1.20;;
70997;SDS011;58663;52.040;4.634;2023-04-24T11:31:38;5.43;;;1.00;;
70997;SDS011;58663;52.040;4.634;2023-04-24T11:34:14;6.20;;;1.08;;
70997;SDS011;58663;52.040;4.634;2023-04-24T11:36:43;4.28;;;0.88;;
70997;SDS011;58663;52.040;4.634;2023-04-24T11:39:09;4.57;;;1.45;;
70997;SDS011;58663;52.040;4.634;2023-04-24T11:41:36;9.02;;;1.83;;
70997;SDS011;58663;52.040;4.634;2023-04-24T11:44:02;3.63;;;1.38;;
70997;SDS011;58663;52.040;4.634;2023-04-24T11:46:29;6.03;;;1.33;;
70997;SDS011;58663;52.040;4.634;2023-04-24T11:48:55;9.65;;;1.60;;
70997;SDS011;58663;52.040;4.634;2023-04-24T11:51:24;6.47;;;1.00;;
70997;SDS011;58663;52.040;4.634;2023-04-24T11:53:51;4.32;;;1.13;;
70997;SDS011;58663;52.040;4.634;2023-04-24T11:56:18;7.93;;;1.67;;
70997;SDS011;58663;52.040;4.634;2023-04-24T11:58:47;6.75;;;1.77;;
70997;SDS011;58663;52.040;4.634;2023-04-24T12:01:12;5.93;;;2.00;;
70997;SDS011;58663;52.040;4.634;2023-04-24T12:03:38;6.40;;;1.77;;
70997;SDS011;58663;52.040;4.634;2023-04-24T12:06:10;7.85;;;1.92;;
70997;SDS011;58663;52.040;4.634;2023-04-24T12:08:37;6.88;;;2.17;;
70997;SDS011;58663;52.040;4.634;2023-04-24T12:11:03;8.32;;;2.15;;
70997;SDS011;58663;52.040;4.634;2023-04-24T12:13:29;8.02;;;1.85;;
70997;SDS011;58663;52.040;4.634;2023-04-24T12:15:56;13.77;;;2.63;;
70997;SDS011;58663;52.040;4.634;2023-04-24T12:18:22;5.35;;;1.45;;
70997;SDS011;58663;52.040;4.634;2023-04-24T12:20:48;7.82;;;1.83;;
70997;SDS011;58663;52.040;4.634;2023-04-24T12:23:14;16.30;;;2.70;;
70997;SDS011;58663;52.040;4.634;2023-04-24T12:25:39;7.20;;;1.92;;
70997;SDS011;58663;52.040;4.634;2023-04-24T12:30:35;9.90;;;2.00;;
70997;SDS011;58663;52.040;4.634;2023-04-24T12:33:04;10.48;;;2.22;;
70997;SDS011;58663;52.040;4.634;2023-04-24T12:35:31;9.52;;;2.10;;
70997;SDS011;58663;52.040;4.634;2023-04-24T12:40:37;10.23;;;2.72;;
70997;SDS011;58663;52.040;4.634;2023-04-24T12:43:12;9.85;;;2.35;;
70997;SDS011;58663;52.040;4.634;2023-04-24T12:45:44;9.65;;;2.05;;
70997;SDS011;58663;52.040;4.634;2023-04-24T12:48:12;13.93;;;2.92;;
70997;SDS011;58663;52.040;4.634;2023-04-24T12:50:39;7.53;;;2.17;;
70997;SDS011;58663;52.040;4.634;2023-04-24T12:53:04;10.15;;;2.45;;
70997;SDS011;58663;52.040;4.634;2023-04-24T12:55:29;12.55;;;2.17;;
70997;SDS011;58663;52.040;4.634;2023-04-24T12:57:55;9.98;;;2.28;;
70997;SDS011;58663;52.040;4.634;2023-04-24T13:00:21;8.82;;;2.75;;
70997;SDS011;58663;52.040;4.634;2023-04-24T13:02:46;13.77;;;2.42;;
70997;SDS011;58663;52.040;4.634;2023-04-24T13:05:11;14.52;;;2.42;;
70997;SDS011;58663;52.040;4.634;2023-04-24T13:07:38;9.90;;;2.45;;
70997;SDS011;58663;52.040;4.634;2023-04-24T13:10:04;12.35;;;2.67;;
70997;SDS011;58663;52.040;4.634;2023-04-24T13:12:30;7.35;;;2.10;;
70997;SDS011;58663;52.040;4.634;2023-04-24T13:14:56;20.73;;;3.30;;
70997;SDS011;58663;52.040;4.634;2023-04-24T13:17:21;14.20;;;2.35;;
70997;SDS011;58663;52.040;4.634;2023-04-24T13:19:49;26.92;;;3.55;;
70997;SDS011;58663;52.040;4.634;2023-04-24T13:22:15;23.20;;;3.28;;
70997;SDS011;58663;52.040;4.634;2023-04-24T13:24:40;15.02;;;3.15;;
70997;SDS011;58663;52.040;4.634;2023-04-24T13:27:06;11.32;;;2.10;;
70997;SDS011;58663;52.040;4.634;2023-04-24T13:29:32;12.73;;;2.00;;
70997;SDS011;58663;52.040;4.634;2023-04-24T13:31:57;7.05;;;1.80;;
70997;SDS011;58663;52.040;4.634;2023-04-24T13:34:23;7.57;;;1.83;;
70997;SDS011;58663;52.040;4.634;2023-04-24T13:36:52;10.38;;;3.42;;
70997;SDS011;58663;52.040;4.634;2023-04-24T13:39:19;9.50;;;2.50;;
70997;SDS011;58663;52.040;4.634;2023-04-24T13:41:44;5.68;;;2.00;;
70997;SDS011;58663;52.040;4.634;2023-04-24T13:44:12;9.48;;;2.53;;
70997;SDS011;58663;52.040;4.634;2023-04-24T13:46:37;9.57;;;2.17;;
70997;SDS011;58663;52.040;4.634;2023-04-24T13:49:02;8.07;;;2.13;;
70997;SDS011;58663;52.040;4.634;2023-04-24T13:51:30;5.93;;;1.60;;
70997;SDS011;58663;52.040;4.634;2023-04-24T13:53:56;5.35;;;2.08;;
70997;SDS011;58663;52.040;4.634;2023-04-24T13:56:22;8.70;;;2.50;;
70997;SDS011;58663;52.040;4.634;2023-04-24T13:58:47;10.30;;;3.55;;
70997;SDS011;58663;52.040;4.634;2023-04-24T14:01:13;8.77;;;2.42;;
70997;SDS011;58663;52.040;4.634;2023-04-24T14:03:39;13.82;;;2.85;;
70997;SDS011;58663;52.040;4.634;2023-04-24T14:06:05;28.88;;;3.08;;
70997;SDS011;58663;52.040;4.634;2023-04-24T14:08:31;8.75;;;2.22;;
70997;SDS011;58663;52.040;4.634;2023-04-24T14:10:56;12.50;;;2.83;;
70997;SDS011;58663;52.040;4.634;2023-04-24T14:13:22;11.95;;;3.08;;
70997;SDS011;58663;52.040;4.634;2023-04-24T14:15:48;12.75;;;2.58;;
70997;SDS011;58663;52.040;4.634;2023-04-24T14:18:13;15.23;;;3.55;;
70997;SDS011;58663;52.040;4.634;2023-04-24T14:20:39;13.68;;;3.53;;
70997;SDS011;58663;52.040;4.634;2023-04-24T14:23:05;11.68;;;3.65;;
70997;SDS011;58663;52.040;4.634;2023-04-24T14:25:30;17.15;;;3.88;;
70997;SDS011;58663;52.040;4.634;2023-04-24T14:27:55;11.05;;;2.90;;
70997;SDS011;58663;52.040;4.634;2023-04-24T14:30:21;9.65;;;3.33;;
70997;SDS011;58663;52.040;4.634;2023-04-24T14:32:46;11.30;;;3.50;;
70997;SDS011;58663;52.040;4.634;2023-04-24T14:35:12;14.63;;;3.85;;
70997;SDS011;58663;52.040;4.634;2023-04-24T14:37:37;14.05;;;3.05;;
70997;SDS011;58663;52.040;4.634;2023-04-24T14:40:03;23.30;;;3.55;;
70997;SDS011;58663;52.040;4.634;2023-04-24T14:42:31;8.82;;;2.30;;
70997;SDS011;58663;52.040;4.634;2023-04-24T14:44:56;8.25;;;2.97;;
70997;SDS011;58663;52.040;4.634;2023-04-24T14:47:22;9.75;;;3.65;;
70997;SDS011;58663;52.040;4.634;2023-04-24T14:49:48;15.88;;;3.78;;
70997;SDS011;58663;52.040;4.634;2023-04-24T14:52:13;13.27;;;3.97;;
70997;SDS011;58663;52.040;4.634;2023-04-24T14:54:39;13.90;;;3.28;;